createdAt,value
2018-02-18T00:00:23.846Z,99.90
2018-02-18T00:02:51.580Z,99.90
2018-02-18T00:05:19.299Z,99.90
2018-02-18T00:07:47.088Z,99.90
2018-02-18T00:10:14.260Z,99.90
2018-02-18T00:12:41.342Z,99.90
2018-02-18T00:15:12.060Z,99.90
2018-02-18T00:17:39.113Z,99.90
2018-02-18T00:20:06.189Z,99.90
2018-02-18T00:22:33.243Z,99.90
2018-02-18T00:25:00.943Z,99.90
2018-02-18T00:27:28.003Z,99.90
2018-02-18T00:29:55.047Z,99.90
2018-02-18T00:32:22.039Z,99.90
2018-02-18T00:34:49.024Z,99.90
2018-02-18T00:37:16.096Z,99.90
2018-02-18T00:39:43.146Z,99.90
2018-02-18T00:42:10.351Z,99.90
2018-02-18T00:44:37.446Z,99.90
2018-02-18T00:47:05.372Z,99.90
2018-02-18T00:49:32.516Z,99.90
2018-02-18T00:51:59.629Z,99.90
2018-02-18T00:54:26.647Z,99.90
2018-02-18T00:56:53.613Z,99.90
2018-02-18T00:59:20.724Z,99.90
2018-02-18T01:01:48.537Z,99.90
2018-02-18T01:04:15.562Z,99.90
2018-02-18T01:06:42.608Z,99.90
2018-02-18T01:09:09.618Z,99.90
2018-02-18T01:11:36.727Z,99.90
2018-02-18T01:14:04.053Z,99.90
2018-02-18T01:16:31.883Z,99.90
2018-02-18T01:18:58.985Z,99.90
2018-02-18T01:21:26.425Z,99.90
2018-02-18T01:23:54.270Z,99.90
2018-02-18T01:26:21.277Z,99.90
2018-02-18T01:28:48.517Z,99.90
2018-02-18T01:31:15.903Z,99.90
2018-02-18T01:33:43.029Z,99.90
2018-02-18T01:36:10.166Z,99.90
2018-02-18T01:38:37.294Z,99.90
2018-02-18T01:41:05.246Z,99.90
2018-02-18T01:43:32.457Z,99.90
2018-02-18T01:45:59.633Z,99.90
2018-02-18T01:48:26.819Z,99.90
2018-02-18T01:50:54.225Z,99.90
2018-02-18T01:53:21.368Z,99.90
2018-02-18T01:55:48.591Z,99.90
2018-02-18T01:58:15.828Z,99.90
2018-02-18T02:00:43.821Z,99.90
2018-02-18T02:03:11.100Z,99.90
2018-02-18T02:05:38.182Z,99.90
2018-02-18T02:08:05.123Z,99.90
2018-02-18T02:10:32.056Z,99.90
2018-02-18T02:12:59.064Z,99.90
2018-02-18T02:15:25.948Z,99.90
2018-02-18T02:17:52.931Z,99.90
2018-02-18T02:20:19.956Z,99.90
2018-02-18T02:22:46.825Z,99.90
2018-02-18T02:25:13.805Z,99.90
2018-02-18T02:27:40.672Z,99.90
2018-02-18T02:30:07.570Z,99.90
2018-02-18T02:32:35.244Z,99.90
2018-02-18T02:35:02.925Z,99.90
2018-02-18T02:37:29.962Z,99.90
2018-02-18T02:39:56.939Z,99.90
2018-02-18T02:42:23.819Z,99.90
2018-02-18T02:44:50.767Z,99.90
2018-02-18T02:47:18.464Z,99.90
2018-02-18T02:49:45.436Z,99.90
2018-02-18T02:52:12.313Z,99.90
2018-02-18T02:54:39.303Z,99.90
2018-02-18T02:57:06.208Z,99.90
2018-02-18T02:59:33.158Z,99.90
2018-02-18T03:02:00.036Z,99.90
2018-02-18T03:04:26.916Z,99.90
2018-02-18T03:06:53.900Z,99.90
2018-02-18T03:09:20.812Z,99.90
2018-02-18T03:11:47.752Z,99.90
2018-02-18T03:14:14.729Z,99.90
2018-02-18T03:16:41.664Z,99.90
2018-02-18T03:19:08.592Z,99.90
2018-02-18T03:21:35.463Z,99.90
2018-02-18T03:24:02.393Z,99.90
2018-02-18T03:26:29.247Z,99.90
2018-02-18T03:28:56.174Z,99.90
2018-02-18T03:31:23.085Z,99.90
2018-02-18T03:33:50.040Z,99.90
2018-02-18T03:36:16.921Z,99.90
2018-02-18T03:38:43.997Z,99.90
2018-02-18T03:41:11.617Z,99.90
2018-02-18T03:43:38.499Z,99.90
2018-02-18T03:46:05.452Z,99.90
2018-02-18T03:48:32.393Z,99.90
2018-02-18T03:50:59.297Z,99.90
2018-02-18T03:53:26.234Z,99.90
2018-02-18T03:55:53.172Z,99.90
2018-02-18T03:58:20.129Z,99.90
2018-02-18T04:00:47.007Z,99.90
2018-02-18T04:03:13.928Z,99.90
2018-02-18T04:05:41.062Z,99.90
2018-02-18T04:08:08.012Z,99.90
2018-02-18T04:10:35.000Z,99.90
2018-02-18T04:13:01.936Z,99.90
2018-02-18T04:15:28.918Z,99.90
2018-02-18T04:17:56.612Z,99.90
2018-02-18T04:20:23.480Z,99.90
2018-02-18T04:22:50.428Z,99.90
2018-02-18T04:25:17.344Z,99.90
2018-02-18T04:27:44.315Z,99.90
2018-02-18T04:30:11.253Z,99.90
2018-02-18T04:32:38.136Z,99.90
2018-02-18T04:35:04.993Z,99.90
2018-02-18T04:37:31.916Z,99.90
2018-02-18T04:39:58.784Z,99.90
2018-02-18T04:42:25.758Z,99.90
2018-02-18T04:44:52.636Z,99.90
2018-02-18T04:47:19.614Z,99.90
2018-02-18T04:49:46.536Z,99.90
2018-02-18T04:52:13.408Z,99.90
2018-02-18T04:54:40.353Z,99.90
2018-02-18T04:57:07.226Z,99.90
2018-02-18T04:59:34.198Z,99.90
2018-02-18T05:02:01.054Z,99.90
2018-02-18T05:04:28.094Z,99.90
2018-02-18T05:06:55.001Z,99.90
2018-02-18T05:09:21.960Z,99.90
2018-02-18T05:11:48.984Z,99.90
2018-02-18T05:14:15.858Z,99.90
2018-02-18T05:16:42.800Z,99.90
2018-02-18T05:19:09.678Z,99.90
2018-02-18T05:21:36.633Z,99.90
2018-02-18T05:24:03.553Z,99.90
2018-02-18T05:26:32.446Z,99.90
2018-02-18T05:29:00.123Z,99.90
2018-02-18T05:31:27.059Z,99.90
2018-02-18T05:33:53.951Z,99.90
2018-02-18T05:36:20.907Z,99.90
2018-02-18T05:38:47.841Z,99.90
2018-02-18T05:41:14.732Z,99.90
2018-02-18T05:43:41.761Z,99.90
2018-02-18T05:46:08.699Z,99.90
2018-02-18T05:48:36.369Z,99.90
2018-02-18T05:51:03.384Z,99.90
2018-02-18T05:53:31.066Z,99.90
2018-02-18T05:55:58.750Z,99.90
2018-02-18T05:58:25.741Z,99.90
2018-02-18T06:00:52.647Z,99.90
2018-02-18T06:03:19.603Z,99.90
2018-02-18T06:05:46.611Z,99.90
2018-02-18T06:08:13.553Z,99.90
2018-02-18T06:10:40.505Z,99.90
2018-02-18T06:13:08.211Z,99.90
2018-02-18T06:15:35.097Z,99.90
2018-02-18T06:18:01.971Z,99.90
2018-02-18T06:20:29.668Z,99.90
2018-02-18T06:22:56.613Z,99.90
2018-02-18T06:25:23.580Z,99.90
2018-02-18T06:27:50.439Z,99.90
2018-02-18T06:30:17.330Z,99.90
2018-02-18T06:32:44.284Z,99.90
2018-02-18T06:35:11.265Z,99.90
2018-02-18T06:37:38.144Z,99.90
2018-02-18T06:40:05.087Z,99.90
2018-02-18T06:42:31.968Z,99.90
2018-02-18T06:44:58.904Z,99.90
2018-02-18T06:47:25.851Z,99.90
2018-02-18T06:49:52.818Z,99.90
2018-02-18T06:52:19.807Z,99.90
2018-02-18T06:54:46.749Z,99.90
2018-02-18T06:57:13.749Z,99.90
2018-02-18T06:59:40.735Z,99.90
2018-02-18T07:02:07.615Z,99.90
2018-02-18T07:04:35.240Z,99.90
2018-02-18T07:07:02.166Z,99.90
2018-02-18T07:09:29.119Z,99.90
2018-02-18T07:11:56.239Z,99.90
2018-02-18T07:14:23.224Z,99.90
2018-02-18T07:16:50.218Z,99.90
2018-02-18T07:19:17.905Z,99.90
2018-02-18T07:21:44.799Z,99.90
2018-02-18T07:24:11.739Z,99.90
2018-02-18T07:26:38.627Z,99.90
2018-02-18T07:29:05.516Z,99.90
2018-02-18T07:31:32.463Z,99.90
2018-02-18T07:33:59.414Z,99.90
2018-02-18T07:36:26.355Z,99.90
2018-02-18T07:38:53.259Z,99.90
2018-02-18T07:41:20.988Z,99.90
2018-02-18T07:43:47.878Z,99.90
2018-02-18T07:46:14.772Z,99.90
2018-02-18T07:48:41.786Z,99.90
2018-02-18T07:51:08.733Z,99.90
2018-02-18T07:53:35.694Z,99.90
2018-02-18T07:56:02.602Z,99.90
2018-02-18T07:58:29.494Z,99.90
2018-02-18T08:00:56.440Z,99.90
2018-02-18T08:03:23.346Z,99.90
2018-02-18T08:05:50.284Z,99.90
2018-02-18T08:08:17.160Z,99.90
2018-02-18T08:10:44.099Z,99.90
2018-02-18T08:13:11.050Z,99.90
2018-02-18T08:15:37.931Z,99.90
2018-02-18T08:18:04.908Z,99.90
2018-02-18T08:20:31.938Z,99.90
2018-02-18T08:22:59.558Z,99.90
2018-02-18T08:25:26.513Z,99.90
2018-02-18T08:27:53.464Z,99.90
2018-02-18T08:30:20.432Z,99.80
2018-02-18T08:32:47.379Z,99.10
2018-02-18T08:35:14.282Z,95.50
2018-02-18T08:37:41.163Z,93.50
2018-02-18T08:40:08.120Z,90.80
2018-02-18T08:42:34.993Z,83.50
2018-02-18T08:45:01.940Z,82.90
2018-02-18T08:47:29.675Z,74.60
2018-02-18T08:49:56.568Z,75.30
2018-02-18T08:52:23.533Z,74.80
2018-02-18T08:54:50.413Z,70.50
2018-02-18T08:57:17.369Z,70.00
2018-02-18T08:59:44.984Z,60.30
2018-02-18T09:02:11.956Z,60.30
2018-02-18T09:04:38.838Z,62.10
2018-02-18T09:07:05.804Z,57.80
2018-02-18T09:09:32.717Z,56.60
2018-02-18T09:11:59.868Z,55.40
2018-02-18T09:14:27.004Z,56.00
2018-02-18T09:16:54.044Z,58.40
2018-02-18T09:19:21.170Z,57.10
2018-02-18T09:21:50.404Z,58.50
2018-02-18T09:24:18.257Z,59.80
2018-02-18T09:26:55.517Z,59.70
2018-02-18T09:29:32.630Z,59.20
2018-02-18T09:32:11.334Z,59.10
2018-02-18T09:34:50.195Z,57.00
2018-02-18T09:37:31.003Z,61.20
2018-02-18T09:40:01.387Z,61.90
2018-02-18T09:42:38.661Z,60.00
2018-02-18T09:45:17.498Z,64.50
2018-02-18T09:47:56.266Z,69.10
2018-02-18T09:50:34.595Z,80.50
2018-02-18T09:53:16.620Z,92.00
2018-02-18T09:55:54.263Z,93.90
2018-02-18T09:58:31.999Z,96.20
2018-02-18T10:00:59.656Z,96.40
2018-02-18T10:03:26.614Z,96.20
2018-02-18T10:05:54.641Z,97.80
2018-02-18T10:08:21.890Z,97.80
2018-02-18T10:10:49.622Z,98.60
2018-02-18T10:13:28.044Z,98.70
2018-02-18T10:18:21.768Z,99.40
2018-02-18T10:20:52.155Z,99.20
2018-02-18T10:23:22.352Z,99.90
2018-02-18T10:25:51.320Z,99.20
2018-02-18T10:28:21.891Z,99.30
2018-02-18T10:30:52.059Z,98.80
2018-02-18T10:33:19.882Z,99.90
2018-02-18T10:35:46.942Z,99.40
2018-02-18T10:38:16.084Z,99.50
2018-02-18T10:40:45.379Z,99.30
2018-02-18T10:43:14.787Z,99.30
2018-02-18T10:45:42.800Z,99.60
2018-02-18T10:48:11.329Z,98.00
2018-02-18T10:50:39.933Z,98.80
2018-02-18T10:53:08.977Z,99.00
2018-02-18T10:55:37.813Z,98.60
2018-02-18T10:58:08.162Z,98.60
2018-02-18T11:00:39.721Z,96.70
2018-02-18T11:03:09.919Z,97.10
2018-02-18T11:05:39.960Z,96.60
2018-02-18T11:08:13.166Z,96.00
2018-02-18T11:10:46.164Z,95.90
2018-02-18T11:13:14.563Z,95.30
2018-02-18T11:15:48.355Z,96.20
2018-02-18T11:18:20.586Z,95.10
2018-02-18T11:21:02.768Z,95.30
2018-02-18T11:26:22.381Z,94.30
2018-02-18T11:29:04.527Z,95.10
2018-02-18T11:31:43.331Z,94.90
2018-02-18T11:34:24.848Z,94.20
2018-02-18T11:37:01.990Z,93.80
2018-02-18T11:39:37.196Z,93.40
2018-02-18T11:42:13.391Z,93.30
2018-02-18T11:44:53.970Z,95.60
2018-02-18T11:47:35.519Z,94.20
2018-02-18T11:50:10.331Z,94.10
2018-02-18T11:52:42.440Z,94.40
2018-02-18T11:55:19.753Z,94.40
2018-02-18T11:57:56.346Z,94.50
2018-02-18T12:00:31.489Z,94.60
2018-02-18T12:03:09.887Z,93.60
2018-02-18T12:05:47.462Z,92.40
2018-02-18T12:08:26.340Z,93.40
2018-02-18T12:11:00.074Z,94.00
2018-02-18T12:13:34.899Z,93.50
2018-02-18T12:16:10.093Z,93.00
2018-02-18T12:18:43.019Z,93.00
2018-02-18T12:21:20.852Z,91.30
2018-02-18T12:23:56.701Z,93.70
2018-02-18T12:26:34.714Z,93.80
2018-02-18T12:29:14.696Z,91.00
2018-02-18T12:31:42.272Z,91.10
2018-02-18T12:34:09.213Z,92.40
2018-02-18T12:36:36.301Z,91.90
2018-02-18T12:39:03.280Z,92.20
2018-02-18T12:41:34.823Z,93.50
2018-02-18T12:44:01.955Z,93.00
2018-02-18T12:46:32.203Z,92.60
2018-02-18T12:48:59.092Z,92.40
2018-02-18T12:51:26.039Z,92.00
2018-02-18T12:53:53.704Z,92.40
2018-02-18T12:56:23.033Z,92.10
2018-02-18T12:58:50.506Z,92.00
2018-02-18T13:01:25.815Z,92.60
2018-02-18T13:06:42.160Z,91.60
2018-02-18T13:09:13.872Z,92.10
2018-02-18T13:11:40.840Z,92.60
2018-02-18T13:14:08.521Z,91.80
2018-02-18T13:16:35.408Z,91.40
2018-02-18T13:19:02.417Z,92.00
2018-02-18T13:21:29.296Z,93.20
2018-02-18T13:23:56.240Z,91.40
2018-02-18T13:26:23.193Z,91.40
2018-02-18T13:28:50.812Z,92.70
2018-02-18T13:31:17.710Z,91.80
2018-02-18T13:33:44.656Z,92.20
2018-02-18T13:36:11.590Z,92.80
2018-02-18T13:38:38.548Z,92.10
2018-02-18T13:41:05.439Z,93.90
2018-02-18T13:43:32.388Z,93.40
2018-02-18T13:46:00.048Z,93.30
2018-02-18T13:48:26.980Z,93.30
2018-02-18T13:50:54.724Z,93.40
2018-02-18T13:53:21.610Z,93.40
2018-02-18T13:55:48.577Z,92.20
2018-02-18T13:58:15.468Z,92.80
2018-02-18T14:00:42.327Z,92.70
2018-02-18T14:03:09.286Z,91.30
2018-02-18T14:05:36.147Z,92.40
2018-02-18T14:08:03.087Z,91.90
2018-02-18T14:10:29.955Z,91.80
2018-02-18T14:12:56.975Z,91.00
2018-02-18T14:15:23.852Z,91.40
2018-02-18T14:17:50.741Z,91.60
2018-02-18T14:20:18.424Z,91.80
2018-02-18T14:22:45.474Z,91.90
2018-02-18T14:25:13.205Z,90.50
2018-02-18T14:27:40.076Z,90.70
2018-02-18T14:30:07.776Z,90.10
2018-02-18T14:32:34.680Z,90.10
2018-02-18T14:35:02.364Z,91.10
2018-02-18T14:37:29.830Z,90.90
2018-02-18T14:39:56.768Z,89.70
2018-02-18T14:42:35.690Z,89.10
2018-02-18T14:45:14.716Z,88.60
2018-02-18T14:47:54.571Z,90.10
2018-02-18T14:50:37.074Z,90.40
2018-02-18T14:53:16.216Z,91.00
2018-02-18T14:55:55.108Z,88.20
2018-02-18T14:58:21.984Z,88.90
2018-02-18T15:00:48.945Z,89.90
2018-02-18T15:03:15.958Z,90.50
2018-02-18T15:05:42.891Z,91.00
2018-02-18T15:08:09.833Z,91.90
2018-02-18T15:10:36.712Z,91.30
2018-02-18T15:13:03.732Z,91.70
2018-02-18T15:15:30.756Z,91.30
2018-02-18T15:17:57.640Z,91.30
2018-02-18T15:20:24.580Z,91.60
2018-02-18T15:22:52.287Z,91.40
2018-02-18T15:25:19.604Z,91.50
2018-02-18T15:27:47.729Z,90.80
2018-02-18T15:30:14.726Z,90.90
2018-02-18T15:32:42.342Z,90.90
2018-02-18T15:35:09.333Z,91.20
2018-02-18T15:37:36.987Z,90.90
2018-02-18T15:40:04.685Z,91.40
2018-02-18T15:42:31.780Z,91.10
2018-02-18T15:44:58.730Z,91.10
2018-02-18T15:47:25.644Z,90.50
2018-02-18T15:49:52.708Z,90.60
2018-02-18T15:52:19.803Z,90.50
2018-02-18T15:54:46.769Z,90.90
2018-02-18T15:57:15.020Z,91.20
2018-02-18T15:59:42.053Z,91.30
2018-02-18T16:02:09.839Z,90.70
2018-02-18T16:04:39.175Z,91.10
2018-02-18T16:07:07.697Z,91.00
2018-02-18T16:09:38.630Z,91.70
2018-02-18T16:12:07.411Z,91.70
2018-02-18T16:14:42.901Z,92.10
2018-02-18T16:17:10.399Z,92.50
2018-02-18T16:19:37.415Z,93.20
2018-02-18T16:22:07.192Z,93.40
2018-02-18T16:24:35.801Z,93.40
2018-02-18T16:27:04.171Z,93.70
2018-02-18T16:29:32.426Z,93.80
2018-02-18T16:32:00.701Z,94.10
2018-02-18T16:34:27.776Z,94.50
2018-02-18T16:36:54.718Z,94.30
2018-02-18T16:39:21.610Z,94.80
2018-02-18T16:41:49.799Z,95.00
2018-02-18T16:44:18.079Z,95.40
2018-02-18T16:46:45.780Z,95.40
2018-02-18T16:49:13.953Z,95.30
2018-02-18T16:51:41.001Z,95.40
2018-02-18T16:54:09.263Z,95.70
2018-02-18T16:56:37.624Z,96.00
2018-02-18T16:59:05.688Z,96.20
2018-02-18T17:01:33.195Z,96.40
2018-02-18T17:04:02.372Z,96.50
2018-02-18T17:06:29.368Z,96.70
2018-02-18T17:08:56.324Z,96.70
2018-02-18T17:11:24.124Z,96.90
2018-02-18T17:13:52.395Z,97.10
2018-02-18T17:16:19.435Z,97.40
2018-02-18T17:18:46.416Z,97.40
2018-02-18T17:21:13.463Z,97.50
2018-02-18T17:23:40.412Z,97.80
2018-02-18T17:26:07.351Z,98.10
2018-02-18T17:28:34.225Z,98.30
2018-02-18T17:31:01.282Z,98.50
2018-02-18T17:33:28.192Z,98.70
2018-02-18T17:35:55.158Z,98.60
2018-02-18T17:38:22.051Z,98.60
2018-02-18T17:40:49.019Z,98.70
2018-02-18T17:43:24.363Z,98.90
2018-02-18T17:46:02.765Z,98.90
2018-02-18T17:48:30.160Z,99.20
2018-02-18T17:50:57.133Z,99.60
2018-02-18T17:56:19.736Z,99.90
2018-02-18T17:58:47.496Z,99.90
2018-02-18T18:01:14.685Z,99.90
2018-02-18T18:03:41.837Z,99.90
2018-02-18T18:06:08.915Z,99.90
2018-02-18T18:08:36.356Z,99.90
2018-02-18T18:11:03.576Z,99.90
2018-02-18T18:13:30.698Z,99.90
2018-02-18T18:15:58.037Z,99.90
2018-02-18T18:18:26.205Z,99.90
2018-02-18T18:20:53.531Z,99.90
2018-02-18T18:23:24.406Z,99.90
2018-02-18T18:25:59.367Z,99.90
2018-02-18T18:28:30.748Z,99.90
2018-02-18T18:30:58.682Z,99.90
2018-02-18T18:33:25.643Z,99.90
2018-02-18T18:35:52.765Z,99.90
2018-02-18T18:38:19.873Z,99.90
2018-02-18T18:41:01.571Z,99.90
2018-02-18T18:43:42.324Z,99.90
2018-02-18T18:46:26.416Z,99.90
2018-02-18T18:49:08.746Z,99.90
2018-02-18T18:51:50.341Z,99.90
2018-02-18T18:54:31.619Z,99.90
2018-02-18T18:57:04.112Z,99.90
2018-02-18T18:59:45.887Z,99.90
2018-02-18T19:02:26.664Z,99.90
2018-02-18T19:05:05.905Z,99.90
2018-02-18T19:07:45.948Z,99.90
2018-02-18T19:10:28.479Z,99.90
2018-02-18T19:13:08.993Z,99.90
2018-02-18T19:15:50.986Z,99.90
2018-02-18T19:18:26.700Z,99.90
2018-02-18T19:21:11.853Z,99.90
2018-02-18T19:23:53.476Z,99.90
2018-02-18T19:26:36.784Z,99.90
2018-02-18T19:29:17.083Z,99.90
2018-02-18T19:31:58.741Z,99.90
2018-02-18T19:34:39.246Z,99.90
2018-02-18T19:37:07.365Z,99.90
2018-02-18T19:39:34.616Z,99.90
2018-02-18T19:42:14.197Z,99.90
2018-02-18T19:44:55.627Z,99.90
2018-02-18T19:47:34.322Z,99.90
2018-02-18T19:50:08.253Z,99.90
2018-02-18T19:52:48.209Z,99.90
2018-02-18T19:55:28.673Z,99.90
2018-02-18T19:58:09.751Z,99.90
2018-02-18T20:00:39.524Z,99.90
2018-02-18T20:03:21.182Z,99.90
2018-02-18T20:06:02.880Z,99.90
2018-02-18T20:08:43.899Z,99.90
2018-02-18T20:11:24.589Z,99.90
2018-02-18T20:14:05.512Z,99.90
2018-02-18T20:16:47.017Z,99.90
2018-02-18T20:19:23.966Z,99.90
2018-02-18T20:22:05.688Z,99.90
2018-02-18T20:24:48.020Z,99.90
2018-02-18T20:27:28.536Z,99.90
2018-02-18T20:32:48.601Z,99.90
2018-02-18T20:35:29.109Z,99.90
2018-02-18T20:37:57.446Z,99.90
2018-02-18T20:40:34.873Z,99.90
2018-02-18T20:43:15.198Z,99.90
2018-02-18T20:45:55.958Z,99.90
2018-02-18T20:48:36.633Z,99.90
2018-02-18T20:51:19.482Z,99.90
2018-02-18T20:54:01.185Z,99.90
2018-02-18T20:56:44.835Z,99.90
2018-02-18T21:02:07.662Z,99.90
2018-02-18T21:04:45.932Z,99.90
2018-02-18T21:07:27.145Z,99.90
2018-02-18T21:10:07.892Z,99.90
2018-02-18T21:12:49.471Z,99.90
2018-02-18T21:15:29.974Z,99.90
2018-02-18T21:18:10.786Z,99.90
2018-02-18T21:20:51.619Z,99.90
2018-02-18T21:23:33.953Z,99.90
2018-02-18T21:26:01.850Z,99.90
2018-02-18T21:28:30.988Z,99.90
2018-02-18T21:31:12.425Z,99.90
2018-02-18T21:33:48.841Z,99.90
2018-02-18T21:36:28.149Z,99.90
2018-02-18T21:41:52.289Z,99.90
2018-02-18T21:44:33.286Z,99.90
2018-02-18T21:47:14.261Z,99.90
2018-02-18T21:49:45.581Z,99.90
2018-02-18T21:52:14.674Z,99.90
2018-02-18T21:54:43.975Z,99.90
2018-02-18T21:57:12.188Z,99.90
2018-02-18T21:59:39.368Z,99.90
2018-02-18T22:02:06.657Z,99.90
2018-02-18T22:04:33.821Z,99.90
2018-02-18T22:07:00.957Z,99.90
2018-02-18T22:09:31.455Z,99.90
2018-02-18T22:12:00.126Z,99.90
2018-02-18T22:14:30.285Z,99.90
2018-02-18T22:17:09.211Z,99.90
2018-02-18T22:19:50.620Z,99.90
2018-02-18T22:22:31.417Z,99.90
2018-02-18T22:25:00.621Z,99.90
2018-02-18T22:27:40.361Z,99.90
2018-02-18T22:30:21.579Z,99.90
2018-02-18T22:33:03.518Z,99.90
2018-02-18T22:35:43.005Z,99.90
2018-02-18T22:41:07.982Z,99.90
2018-02-18T22:43:36.713Z,99.90
2018-02-18T22:46:03.757Z,99.90
2018-02-18T22:48:30.727Z,99.90
2018-02-18T22:50:57.712Z,99.90
2018-02-18T22:53:24.664Z,99.90
2018-02-18T22:55:51.900Z,99.90
2018-02-18T22:58:19.672Z,99.90
2018-02-18T23:00:46.612Z,99.90
2018-02-18T23:03:14.563Z,99.90
2018-02-18T23:05:47.619Z,99.90
2018-02-18T23:08:14.897Z,99.90
2018-02-18T23:10:42.121Z,99.90
2018-02-18T23:13:09.305Z,99.90
2018-02-18T23:15:36.517Z,99.90
2018-02-18T23:18:03.571Z,99.90
2018-02-18T23:20:51.607Z,99.90
2018-02-18T23:23:18.576Z,99.90
2018-02-18T23:25:45.689Z,99.90
2018-02-18T23:28:12.687Z,99.90
2018-02-18T23:30:39.680Z,99.90
2018-02-18T23:33:06.950Z,99.90
2018-02-18T23:35:34.135Z,99.90
2018-02-18T23:38:01.202Z,99.90
2018-02-18T23:40:29.122Z,99.90
2018-02-18T23:42:56.994Z,99.90
2018-02-18T23:45:24.205Z,99.90
2018-02-18T23:47:51.285Z,99.90
2018-02-18T23:50:18.335Z,99.90
2018-02-18T23:52:45.448Z,99.90
2018-02-18T23:55:12.455Z,99.90
2018-02-18T23:57:39.387Z,99.90
